createdAt,value
2023-03-21T00:01:55.994Z,247
2023-03-21T00:02:39.797Z,247
2023-03-21T00:04:50.768Z,247
2023-03-21T00:06:42.722Z,247
2023-03-21T00:08:43.997Z,247
2023-03-21T00:12:46.984Z,247
2023-03-21T00:14:48.201Z,247
2023-03-21T00:16:49.982Z,247
2023-03-21T00:18:50.978Z,247
2023-03-21T00:22:53.950Z,247
2023-03-21T00:24:55.636Z,247
2023-03-21T00:28:58.078Z,247
2023-03-21T00:33:05.851Z,247
2023-03-21T00:35:26.097Z,247
2023-03-21T00:39:03.356Z,247
2023-03-21T00:43:06.372Z,247
2023-03-21T00:45:07.606Z,247
2023-03-21T00:47:09.038Z,247
2023-03-21T00:49:09.918Z,247
2023-03-21T00:51:11.850Z,247
2023-03-21T00:53:13.062Z,247
2023-03-21T00:55:14.645Z,247
2023-03-21T00:57:16.877Z,247
2023-03-21T00:59:17.569Z,247
2023-03-21T01:01:19.216Z,247
2023-03-21T01:03:24.753Z,247
2023-03-21T01:05:21.806Z,247
2023-03-21T01:07:22.840Z,247
2023-03-21T01:11:26.325Z,247
2023-03-21T01:15:29.545Z,247
2023-03-21T01:17:30.620Z,247
2023-03-21T01:21:33.609Z,247
2023-03-21T01:23:35.481Z,247
2023-03-21T01:25:37.382Z,247
2023-03-21T01:27:38.846Z,247
2023-03-21T01:29:40.253Z,247
2023-03-21T01:31:42.200Z,247
2023-03-21T01:33:43.553Z,247
2023-03-21T01:35:50.249Z,247
2023-03-21T01:37:46.758Z,247
2023-03-21T01:39:48.663Z,247
2023-03-21T01:41:50.224Z,247
2023-03-21T01:43:51.686Z,247
2023-03-21T01:45:52.984Z,247
2023-03-21T01:47:54.358Z,247
2023-03-21T01:49:55.837Z,247
2023-03-21T01:53:58.723Z,247
2023-03-21T01:55:59.776Z,247
2023-03-21T01:58:06.140Z,247
2023-03-21T02:00:03.336Z,247
2023-03-21T02:04:14.289Z,247
2023-03-21T02:06:07.285Z,247
2023-03-21T02:08:08.288Z,247
2023-03-21T02:10:09.267Z,247
2023-03-21T02:14:13.226Z,247
2023-03-21T02:16:13.275Z,247
2023-03-21T02:18:14.250Z,247
2023-03-21T02:20:15.863Z,247
2023-03-21T02:26:19.569Z,247
2023-03-21T02:28:20.521Z,247
2023-03-21T02:30:28.763Z,247
2023-03-21T02:32:36.472Z,247
2023-03-21T02:36:25.898Z,247
2023-03-21T02:38:35.367Z,247
2023-03-21T02:40:29.260Z,247
2023-03-21T02:42:31.208Z,247
2023-03-21T02:46:42.833Z,247
2023-03-21T02:48:49.667Z,247
2023-03-21T02:52:39.778Z,247
2023-03-21T02:56:41.184Z,247
2023-03-21T02:58:42.423Z,247
2023-03-21T03:02:45.360Z,247
2023-03-21T03:06:48.123Z,247
2023-03-21T03:09:01.249Z,247
2023-03-21T03:11:00.136Z,247
2023-03-21T03:12:52.350Z,247
2023-03-21T03:15:02.956Z,247
2023-03-21T03:16:54.951Z,247
2023-03-21T03:18:56.641Z,247
2023-03-21T03:25:04.702Z,247
2023-03-21T03:27:02.387Z,247
2023-03-21T03:29:03.723Z,247
2023-03-21T03:31:09.446Z,247
2023-03-21T03:35:07.970Z,247
2023-03-21T03:37:09.675Z,247
2023-03-21T03:39:11.012Z,247
2023-03-21T03:41:12.703Z,247
2023-03-21T03:45:15.638Z,247
2023-03-21T03:47:26.350Z,247
2023-03-21T03:49:19.407Z,247
2023-03-21T03:51:20.380Z,247
2023-03-21T03:53:22.054Z,247
2023-03-21T03:55:23.739Z,247
2023-03-21T03:57:24.968Z,247
2023-03-21T03:59:25.966Z,247
2023-03-21T04:01:26.921Z,247
2023-03-21T04:03:32.366Z,247
2023-03-21T04:05:29.853Z,247
2023-03-21T04:07:31.756Z,247
2023-03-21T04:09:43.441Z,247
2023-03-21T04:11:34.773Z,247
2023-03-21T04:13:36.181Z,247
2023-03-21T04:17:39.429Z,247
2023-03-21T04:19:40.445Z,247
2023-03-21T04:23:43.638Z,247
2023-03-21T04:27:46.514Z,247
2023-03-21T04:29:47.757Z,247
2023-03-21T04:31:49.075Z,247
2023-03-21T04:33:50.949Z,247
2023-03-21T04:35:52.487Z,247
2023-03-21T04:37:53.895Z,247
2023-03-21T04:39:55.507Z,247
2023-03-21T04:41:56.541Z,247
2023-03-21T04:43:57.748Z,247
2023-03-21T04:45:59.340Z,247
2023-03-21T04:48:00.309Z,247
2023-03-21T04:50:02.189Z,247
2023-03-21T04:52:04.070Z,247
2023-03-21T04:54:05.111Z,247
2023-03-21T04:56:06.531Z,247
2023-03-21T05:00:09.555Z,247
2023-03-21T05:02:10.701Z,247
2023-03-21T05:04:12.150Z,247
2023-03-21T05:06:21.773Z,247
2023-03-21T05:10:16.849Z,247
2023-03-21T05:12:18.713Z,247
2023-03-21T05:14:20.302Z,247
2023-03-21T05:16:22.081Z,247
2023-03-21T05:20:25.145Z,247
2023-03-21T05:22:27.041Z,247
2023-03-21T05:24:28.111Z,247
2023-03-21T05:26:29.100Z,247
2023-03-21T05:32:34.322Z,247
2023-03-21T05:34:35.649Z,360
2023-03-21T05:36:36.891Z,360
2023-03-21T05:38:38.827Z,360
2023-03-21T05:40:40.456Z,360
2023-03-21T05:42:42.172Z,360
2023-03-21T05:44:43.224Z,360
2023-03-21T05:46:44.331Z,360
2023-03-21T05:48:45.775Z,360
2023-03-21T05:52:48.212Z,360
2023-03-21T05:54:49.401Z,360
2023-03-21T05:58:52.290Z,360
2023-03-21T06:02:55.269Z,360
2023-03-21T06:05:04.446Z,360
2023-03-21T06:08:59.001Z,360
2023-03-21T06:13:02.034Z,360
2023-03-21T06:15:03.871Z,360
2023-03-21T06:19:07.142Z,360
2023-03-21T06:21:08.352Z,360
2023-03-21T06:23:09.797Z,360
2023-03-21T06:25:11.500Z,76
2023-03-21T06:29:14.264Z,76
2023-03-21T06:31:15.385Z,76
2023-03-21T06:33:16.776Z,76
2023-03-21T06:35:18.409Z,76
2023-03-21T06:37:19.549Z,76
2023-03-21T06:41:23.189Z,76
2023-03-21T06:45:26.160Z,76
2023-03-21T06:47:27.547Z,76
2023-03-21T06:50:12.602Z,76
2023-03-21T06:52:14.003Z,76
2023-03-21T06:54:15.670Z,76
2023-03-21T06:56:17.057Z,76
2023-03-21T06:58:18.626Z,76
2023-03-21T07:00:19.623Z,76
2023-03-21T07:02:21.369Z,76
2023-03-21T07:04:23.006Z,76
2023-03-21T07:06:24.207Z,76
2023-03-21T07:08:25.568Z,76
2023-03-21T07:10:27.174Z,76
2023-03-21T07:12:28.888Z,76
2023-03-21T07:14:30.744Z,76
2023-03-21T07:18:33.660Z,76
2023-03-21T07:20:34.611Z,78
2023-03-21T07:24:36.951Z,78
2023-03-21T07:28:38.983Z,78
2023-03-21T07:30:40.423Z,78
2023-03-21T07:32:42.236Z,78
2023-03-21T07:34:43.795Z,78
2023-03-21T07:38:46.565Z,78
2023-03-21T07:40:48.236Z,78
2023-03-21T07:42:49.598Z,78
2023-03-21T07:44:51.192Z,78
2023-03-21T07:48:54.276Z,78
2023-03-21T07:50:55.075Z,78
2023-03-21T07:52:56.223Z,78
2023-03-21T07:54:57.099Z,78
2023-03-21T07:56:58.123Z,78
2023-03-21T08:01:00.594Z,78
2023-03-21T08:03:01.503Z,78
2023-03-21T08:05:02.948Z,79
2023-03-21T08:07:03.870Z,79
2023-03-21T08:11:06.292Z,78
2023-03-21T08:13:07.778Z,99
2023-03-21T08:17:10.905Z,110
2023-03-21T08:21:13.463Z,233
2023-03-21T08:23:14.745Z,233
2023-03-21T08:27:17.182Z,233
2023-03-21T08:31:20.412Z,238
2023-03-21T08:33:22.042Z,139
2023-03-21T08:37:24.801Z,168
2023-03-21T08:39:25.695Z,211
2023-03-21T08:41:26.549Z,211
2023-03-21T08:43:27.403Z,212
2023-03-21T08:45:28.395Z,214
2023-03-21T08:47:29.517Z,215
2023-03-21T08:49:30.880Z,187
2023-03-21T08:51:32.029Z,190
2023-03-21T08:53:33.854Z,208
2023-03-21T08:55:35.528Z,200
2023-03-21T08:59:38.657Z,214
2023-03-21T09:01:39.911Z,177
2023-03-21T09:05:43.668Z,189
2023-03-21T09:09:47.691Z,207
2023-03-21T09:11:47.329Z,207
2023-03-21T09:13:48.824Z,180
2023-03-21T09:15:49.791Z,199
2023-03-21T09:19:52.539Z,198
2023-03-21T09:21:53.975Z,181
2023-03-21T09:23:54.861Z,205
2023-03-21T09:25:55.762Z,206
2023-03-21T09:29:58.163Z,221
2023-03-21T09:31:59.230Z,154
2023-03-21T09:34:00.541Z,181
2023-03-21T09:36:02.164Z,227
2023-03-21T09:38:03.179Z,206
2023-03-21T09:42:05.950Z,203
2023-03-21T09:44:06.857Z,150
2023-03-21T09:46:08.596Z,162
2023-03-21T09:48:11.195Z,162
2023-03-21T09:52:13.444Z,171
2023-03-21T09:54:14.710Z,178
2023-03-21T09:58:17.871Z,168
2023-03-21T10:02:20.034Z,222
2023-03-21T10:04:21.138Z,232
2023-03-21T10:08:23.688Z,264
2023-03-21T10:12:26.018Z,151
2023-03-21T10:14:27.398Z,191
2023-03-21T10:18:30.899Z,235
2023-03-21T10:20:32.577Z,235
2023-03-21T10:22:33.579Z,230
2023-03-21T10:24:35.080Z,227
2023-03-21T10:30:39.121Z,153
2023-03-21T10:32:40.449Z,166
2023-03-21T10:34:41.197Z,183
2023-03-21T10:36:42.597Z,147
2023-03-21T10:40:44.379Z,260
2023-03-21T10:42:46.031Z,153
2023-03-21T10:44:46.873Z,167
2023-03-21T10:46:48.755Z,144
2023-03-21T10:50:50.734Z,235
2023-03-21T10:52:51.852Z,210
2023-03-21T10:54:53.244Z,197
2023-03-21T10:56:54.991Z,198
2023-03-21T10:58:56.748Z,217
2023-03-21T11:00:58.125Z,273
2023-03-21T11:02:58.868Z,214
2023-03-21T11:05:00.681Z,205
2023-03-21T11:07:02.167Z,225
2023-03-21T11:09:03.496Z,220
2023-03-21T11:11:04.843Z,216
2023-03-21T11:13:05.999Z,289
2023-03-21T11:15:07.004Z,250
2023-03-21T11:17:08.230Z,175
2023-03-21T11:19:09.115Z,254
2023-03-21T11:21:18.946Z,254
2023-03-21T11:23:12.439Z,360
2023-03-21T11:25:14.103Z,228
2023-03-21T11:27:15.166Z,261
2023-03-21T11:29:17.800Z,232
2023-03-21T11:31:17.923Z,131
2023-03-21T11:33:19.721Z,247
2023-03-21T11:35:20.841Z,247
2023-03-21T11:37:21.662Z,236
2023-03-21T11:39:22.916Z,244
2023-03-21T11:41:24.164Z,233
2023-03-21T11:43:25.829Z,238
2023-03-21T11:45:27.451Z,121
2023-03-21T11:47:28.384Z,236
2023-03-21T11:49:29.992Z,236
2023-03-21T11:51:31.404Z,226
2023-03-21T11:55:34.673Z,209
2023-03-21T11:57:36.010Z,161
2023-03-21T12:01:40.297Z,175
2023-03-21T12:05:44.310Z,241
2023-03-21T12:07:46.044Z,170
2023-03-21T12:09:47.592Z,197
2023-03-21T12:11:49.051Z,220
2023-03-21T12:13:49.945Z,198
2023-03-21T12:15:54.364Z,199
2023-03-21T12:17:53.496Z,136
2023-03-21T12:19:54.912Z,226
2023-03-21T12:21:56.522Z,205
2023-03-21T12:23:58.129Z,195
2023-03-21T12:25:59.384Z,195
2023-03-21T12:28:02.702Z,197
2023-03-21T12:30:01.674Z,207
2023-03-21T12:32:02.830Z,203
2023-03-21T12:34:03.820Z,133
2023-03-21T12:38:06.713Z,189
2023-03-21T12:40:08.287Z,209
2023-03-21T12:42:09.992Z,209
2023-03-21T12:44:11.709Z,209
2023-03-21T12:48:14.699Z,161
2023-03-21T12:50:16.447Z,209
2023-03-21T12:52:17.648Z,209
2023-03-21T12:54:18.536Z,86
2023-03-21T12:58:22.011Z,184
2023-03-21T13:00:24.068Z,223
2023-03-21T13:02:25.153Z,223
2023-03-21T13:04:26.631Z,223
2023-03-21T13:08:29.068Z,223
2023-03-21T13:10:30.830Z,223
2023-03-21T13:12:32.584Z,223
2023-03-21T13:14:33.426Z,223
2023-03-21T13:16:35.075Z,223
2023-03-21T13:20:38.179Z,176
2023-03-21T13:22:40.074Z,274
2023-03-21T13:24:41.820Z,233
2023-03-21T13:26:42.861Z,229
2023-03-21T13:30:45.091Z,197
2023-03-21T13:32:46.788Z,162
2023-03-21T13:35:31.335Z,243
2023-03-21T13:37:33.107Z,171
2023-03-21T13:41:36.176Z,187
2023-03-21T13:45:39.058Z,187
2023-03-21T13:47:40.059Z,187
2023-03-21T13:51:43.326Z,215
2023-03-21T13:53:45.210Z,215
2023-03-21T13:57:48.557Z,226
2023-03-21T13:59:49.621Z,226
2023-03-21T14:01:50.758Z,226
2023-03-21T14:07:59.266Z,226
2023-03-21T14:09:57.119Z,226
2023-03-21T14:13:59.314Z,223
2023-03-21T14:18:03.456Z,223
2023-03-21T14:20:03.550Z,223
2023-03-21T14:24:06.650Z,210
2023-03-21T14:28:08.910Z,182
2023-03-21T14:30:10.218Z,182
2023-03-21T14:32:11.797Z,184
2023-03-21T14:34:13.465Z,184
2023-03-21T14:36:14.843Z,185
2023-03-21T14:38:15.694Z,184
2023-03-21T14:40:16.768Z,185
2023-03-21T14:42:17.675Z,167
2023-03-21T14:44:18.575Z,189
2023-03-21T14:46:20.282Z,189
2023-03-21T14:48:21.860Z,189
2023-03-21T14:50:23.475Z,189
2023-03-21T14:52:24.457Z,189
2023-03-21T14:56:27.797Z,189
2023-03-21T14:58:28.928Z,189
2023-03-21T15:02:32.716Z,189
2023-03-21T15:06:34.940Z,189
2023-03-21T15:08:35.991Z,189
2023-03-21T15:10:37.267Z,189
2023-03-21T15:12:38.397Z,189
2023-03-21T15:16:41.358Z,190
2023-03-21T15:18:42.539Z,190
2023-03-21T15:20:44.395Z,190
2023-03-21T15:22:45.794Z,190
2023-03-21T15:26:48.468Z,190
2023-03-21T15:28:49.654Z,190
2023-03-21T15:30:50.784Z,190
2023-03-21T15:32:51.853Z,190
2023-03-21T15:34:53.152Z,190
2023-03-21T15:38:56.587Z,190
2023-03-21T15:40:57.590Z,190
2023-03-21T15:42:59.143Z,190
2023-03-21T15:45:00.119Z,190
2023-03-21T15:49:02.459Z,190
2023-03-21T15:51:04.049Z,190
2023-03-21T15:55:07.338Z,190
2023-03-21T15:57:17.300Z,190
2023-03-21T15:59:09.850Z,190
2023-03-21T16:01:11.391Z,190
2023-03-21T16:05:14.023Z,190
2023-03-21T16:09:17.121Z,190
2023-03-21T16:11:18.716Z,190
2023-03-21T16:15:22.033Z,190
2023-03-21T16:17:23.366Z,190
2023-03-21T16:19:25.089Z,190
2023-03-21T16:21:26.698Z,190
2023-03-21T16:27:31.132Z,190
2023-03-21T16:29:32.467Z,190
2023-03-21T16:31:33.605Z,190
2023-03-21T16:33:35.286Z,190
2023-03-21T16:37:37.372Z,190
2023-03-21T16:39:38.782Z,190
2023-03-21T16:41:39.974Z,190
2023-03-21T16:43:41.210Z,190
2023-03-21T16:47:43.310Z,190
2023-03-21T16:49:45.050Z,190
2023-03-21T16:51:46.292Z,190
2023-03-21T16:53:47.842Z,190
2023-03-21T16:55:49.253Z,190
2023-03-21T16:57:50.870Z,190
2023-03-21T16:59:52.251Z,182
2023-03-21T17:01:53.974Z,182
2023-03-21T17:03:54.948Z,182
2023-03-21T17:05:56.754Z,182
2023-03-21T17:07:57.813Z,182
2023-03-21T17:09:59.050Z,182
2023-03-21T17:12:00.028Z,182
2023-03-21T17:14:01.868Z,182
2023-03-21T17:16:03.095Z,182
2023-03-21T17:20:06.029Z,182
2023-03-21T17:22:07.163Z,182
2023-03-21T17:24:08.328Z,182
2023-03-21T17:26:09.878Z,182
2023-03-21T17:30:12.595Z,182
2023-03-21T17:32:14.070Z,182
2023-03-21T17:34:15.943Z,182
2023-03-21T17:36:17.098Z,182
2023-03-21T17:40:20.074Z,182
2023-03-21T17:42:21.268Z,182
2023-03-21T17:46:24.300Z,182
2023-03-21T17:50:27.706Z,182
2023-03-21T17:52:28.670Z,182
2023-03-21T17:54:30.557Z,182
2023-03-21T17:56:31.495Z,182
2023-03-21T17:58:33.304Z,182
2023-03-21T18:02:36.289Z,182
2023-03-21T18:04:37.662Z,182
2023-03-21T18:06:39.042Z,181
2023-03-21T18:08:40.668Z,37
2023-03-21T18:12:43.124Z,41
2023-03-21T18:14:44.540Z,360
2023-03-21T18:18:47.142Z,360
2023-03-21T18:22:50.700Z,360
2023-03-21T18:24:52.491Z,360
2023-03-21T18:29:44.766Z,360
2023-03-21T18:32:58.407Z,360
2023-03-21T18:35:00.188Z,360
2023-03-21T18:39:02.272Z,360
2023-03-21T18:41:04.147Z,360
2023-03-21T18:45:07.073Z,360
2023-03-21T18:51:10.913Z,360
2023-03-21T18:53:12.646Z,360
2023-03-21T18:55:14.353Z,360
2023-03-21T18:57:37.285Z,360
2023-03-21T19:01:17.906Z,360
2023-03-21T19:03:32.841Z,360
2023-03-21T19:05:21.398Z,360
2023-03-21T19:07:22.964Z,360
2023-03-21T19:11:25.882Z,360
2023-03-21T19:13:27.466Z,360
2023-03-21T19:15:28.897Z,360
2023-03-21T19:19:31.773Z,360
2023-03-21T19:21:33.093Z,360
2023-03-21T19:23:59.217Z,360
2023-03-21T19:25:36.303Z,360
2023-03-21T19:27:37.798Z,360
2023-03-21T19:29:39.330Z,360
2023-03-21T19:31:40.931Z,360
2023-03-21T19:33:42.168Z,360
2023-03-21T19:35:43.727Z,360
2023-03-21T19:37:45.470Z,360
2023-03-21T19:39:47.516Z,360
2023-03-21T19:43:54.981Z,360
2023-03-21T19:47:52.702Z,360
2023-03-21T19:50:42.699Z,360
2023-03-21T19:53:56.658Z,360
2023-03-21T19:56:01.891Z,360
2023-03-21T19:57:59.701Z,360
2023-03-21T20:00:01.463Z,360
2023-03-21T20:02:21.730Z,360
2023-03-21T20:04:04.947Z,360
2023-03-21T20:06:05.924Z,360
2023-03-21T20:10:09.327Z,360
2023-03-21T20:12:10.508Z,360
2023-03-21T20:14:11.947Z,360
2023-03-21T20:16:13.630Z,360
2023-03-21T20:18:15.426Z,360
2023-03-21T20:21:01.968Z,360
2023-03-21T20:23:07.660Z,360
2023-03-21T20:25:03.250Z,360
2023-03-21T20:27:04.570Z,360
2023-03-21T20:31:07.894Z,360
2023-03-21T20:33:09.567Z,360
2023-03-21T20:35:31.285Z,360
2023-03-21T20:37:12.962Z,360
2023-03-21T20:41:16.282Z,360
2023-03-21T20:43:58.771Z,360
2023-03-21T20:45:19.363Z,360
2023-03-21T20:47:20.645Z,360
2023-03-21T20:52:46.146Z,360
2023-03-21T20:53:25.187Z,360
2023-03-21T20:55:26.750Z,360
2023-03-21T20:57:28.369Z,360
2023-03-21T20:59:29.318Z,360
2023-03-21T21:03:33.077Z,360
2023-03-21T21:05:35.087Z,360
2023-03-21T21:07:36.364Z,360
2023-03-21T21:09:37.400Z,360
2023-03-21T21:13:39.557Z,360
2023-03-21T21:15:40.754Z,360
2023-03-21T21:18:04.590Z,360
2023-03-21T21:19:44.670Z,360
2023-03-21T21:21:46.276Z,360
2023-03-21T21:25:48.457Z,360
2023-03-21T21:27:50.333Z,360
2023-03-21T21:29:52.155Z,360
2023-03-21T21:32:02.893Z,360
2023-03-21T21:33:54.946Z,360
2023-03-21T21:35:56.676Z,360
2023-03-21T21:37:58.469Z,360
2023-03-21T21:39:59.964Z,360
2023-03-21T21:42:01.518Z,360
2023-03-21T21:46:04.961Z,360
2023-03-21T21:48:06.152Z,360
2023-03-21T21:50:07.337Z,360
2023-03-21T21:52:09.228Z,360
2023-03-21T21:56:12.416Z,360
2023-03-21T21:58:13.516Z,360
2023-03-21T22:02:16.121Z,360
2023-03-21T22:06:18.933Z,360
2023-03-21T22:08:20.071Z,360
2023-03-21T22:12:23.066Z,360
2023-03-21T22:16:25.404Z,360
2023-03-21T22:18:26.975Z,360
2023-03-21T22:22:30.324Z,360
2023-03-21T22:24:31.900Z,360
2023-03-21T22:26:33.292Z,360
2023-03-21T22:28:34.205Z,360
2023-03-21T22:34:38.483Z,360
2023-03-21T22:36:39.733Z,360
2023-03-21T22:38:41.435Z,360
2023-03-21T22:40:42.797Z,360
2023-03-21T22:44:46.022Z,360
2023-03-21T22:46:47.535Z,360
2023-03-21T22:48:49.144Z,360
2023-03-21T22:50:50.692Z,360
2023-03-21T22:54:54.273Z,360
2023-03-21T22:58:57.860Z,360
2023-03-21T23:00:59.684Z,360
2023-03-21T23:03:00.652Z,360
2023-03-21T23:05:01.657Z,360
2023-03-21T23:07:02.701Z,360
2023-03-21T23:09:03.840Z,360
2023-03-21T23:11:05.647Z,360
2023-03-21T23:13:06.630Z,360
2023-03-21T23:15:07.820Z,360
2023-03-21T23:17:09.256Z,360
2023-03-21T23:19:10.666Z,360
2023-03-21T23:21:12.206Z,360
2023-03-21T23:23:13.837Z,360
2023-03-21T23:27:15.866Z,360
2023-03-21T23:29:17.002Z,360
2023-03-21T23:33:19.144Z,360
2023-03-21T23:37:22.159Z,360
2023-03-21T23:39:23.932Z,360
2023-03-21T23:43:26.733Z,360
2023-03-21T23:45:28.306Z,360
2023-03-21T23:47:29.560Z,360
2023-03-21T23:49:30.735Z,360
2023-03-21T23:51:31.992Z,360
2023-03-21T23:53:33.289Z,360
2023-03-21T23:57:36.136Z,360
2023-03-21T23:59:37.743Z,360
